Time;durP1;ratioP1;P1;durP2;ratioP2;P2;SDS_P1;SDS_P2;PMS_P1;PMS_P2;Temp;Humidity;BMP_temperature;BMP_pressure;BME280_temperature;BME280_humidity;BME280_pressure;Samples;Min_cycle;Max_cycle;Signal;HPM_P1;HPM_P2
2021/12/12 05:59:31;;;;;;;;;;;;;;;1.67;100.00;98760.63;5917392;23;19923;-69
2021/12/12 06:02:00;;;;;;;;;;;;;;;1.72;100.00;98764.03;4899444;29;20331;-70
2021/12/12 06:04:28;;;;;;;;;;;;;;;1.71;100.00;98762.41;4899445;29;20313;-70
2021/12/12 06:06:55;;;;;;;;;;;;;;;1.73;100.00;98767.59;4882709;29;20006;-72
2021/12/12 06:09:24;;;;;;;;;;;;;;;1.79;100.00;98774.53;4898237;29;20232;-71
2021/12/12 06:11:52;;;;;;;;;;;;;;;1.81;100.00;98762.06;4898188;29;19938;-70
2021/12/12 06:14:20;;;;;;;;;;;;;;;1.88;100.00;98769.84;4890005;29;20305;-69
2021/12/12 06:16:48;;;;;;;;;;;;;;;1.89;100.00;98774.19;4905642;29;19935;-69
2021/12/12 06:19:17;;;;;;;;;;;;;;;1.96;100.00;98780.81;4898880;29;19947;-68
2021/12/12 06:21:48;;;;;;;;;;;;;;;2.02;100.00;98794.44;4898757;29;20343;-69
2021/12/12 06:24:16;;;;;;;;;;;;;;;2.04;100.00;98798.47;4898622;29;19938;-69
2021/12/12 06:26:43;;;;;;;;;;;;;;;1.94;100.00;98809.88;4897787;29;20502;-69
2021/12/12 06:29:11;;;;;;;;;;;;;;;1.92;100.00;98807.44;4892453;29;19935;-69
2021/12/12 06:31:42;;;;;;;;;;;;;;;1.94;100.00;98818.13;4898388;29;19927;-69
2021/12/12 06:34:10;;;;;;;;;;;;;;;1.88;100.00;98823.00;4896482;29;19931;-69
2021/12/12 06:36:38;;;;;;;;;;;;;;;1.91;100.00;98835.34;4900204;29;20323;-69
2021/12/12 06:39:07;;;;;;;;;;;;;;;1.95;100.00;98839.06;4898252;29;19931;-70
2021/12/12 06:41:35;;;;;;;;;;;;;;;2.01;100.00;98843.25;4898322;29;20001;-70
2021/12/12 06:44:04;;;;;;;;;;;;;;;2.05;100.00;98852.53;4899312;29;20201;-69
2021/12/12 06:46:32;;;;;;;;;;;;;;;2.06;100.00;98856.06;4898436;29;19928;-69
2021/12/12 06:49:00;;;;;;;;;;;;;;;2.11;100.00;98866.94;4898469;29;19931;-69
2021/12/12 06:51:28;;;;;;;;;;;;;;;2.15;100.00;98863.22;4897797;29;19932;-69
2021/12/12 06:53:55;;;;;;;;;;;;;;;2.19;100.00;98872.44;4897267;29;19938;-69
2021/12/12 06:56:25;;;;;;;;;;;;;;;2.26;100.00;98866.41;4898913;29;20232;-69
2021/12/12 06:58:54;;;;;;;;;;;;;;;2.32;100.00;98867.84;4898402;29;19928;-69
2021/12/12 07:01:23;;;;;;;;;;;;;;;2.37;100.00;98873.19;4898659;29;19932;-69
2021/12/12 07:03:51;;;;;;;;;;;;;;;2.43;100.00;98877.38;4890104;29;19932;-69
2021/12/12 07:06:19;;;;;;;;;;;;;;;2.47;100.00;98875.59;4897496;29;19927;-69
2021/12/12 07:08:47;;;;;;;;;;;;;;;2.54;100.00;98873.13;4898241;29;19931;-69
2021/12/12 07:11:16;;;;;;;;;;;;;;;2.73;97.08;98873.53;4900733;29;20225;-69
2021/12/12 07:13:45;;;;;;;;;;;;;;;2.78;96.91;98878.03;4899818;29;20509;-69
2021/12/12 07:16:12;;;;;;;;;;;;;;;2.86;96.30;98880.75;4900822;29;19939;-69
2021/12/12 07:18:40;;;;;;;;;;;;;;;2.91;99.96;98879.75;4899525;29;20221;-69
2021/12/12 07:21:10;;;;;;;;;;;;;;;3.01;94.86;98890.41;4901556;29;19931;-69
2021/12/12 07:23:38;;;;;;;;;;;;;;;3.42;96.35;98896.00;4901101;29;19936;-69
2021/12/12 07:26:07;;;;;;;;;;;;;;;4.13;92.73;98891.16;4899063;29;19927;-69
2021/12/12 07:28:35;;;;;;;;;;;;;;;4.91;83.46;98888.28;4899806;29;20232;-69
2021/12/12 07:31:04;;;;;;;;;;;;;;;5.64;84.07;98891.75;4884167;29;19939;-69
2021/12/12 07:33:32;;;;;;;;;;;;;;;6.69;78.04;98899.50;4895209;29;19935;-69
2021/12/12 07:36:07;;;;;;;;;;;;;;;7.62;69.16;98906.13;4893773;29;19932;-70
2021/12/12 07:38:35;;;;;;;;;;;;;;;8.86;64.71;98904.66;4901553;29;19938;-70
2021/12/12 07:41:04;;;;;;;;;;;;;;;9.12;65.45;98915.09;4900648;29;19931;-70
2021/12/12 07:43:31;;;;;;;;;;;;;;;9.79;59.77;98907.72;4896404;29;19935;-70
2021/12/12 07:45:59;;;;;;;;;;;;;;;10.82;56.31;98913.41;4897952;29;19931;-70
2021/12/12 07:48:27;;;;;;;;;;;;;;;11.69;48.61;98922.94;4900280;29;19935;-70
2021/12/12 07:50:55;;;;;;;;;;;;;;;13.80;46.34;98922.69;4899478;29;19931;-70
2021/12/12 07:53:23;;;;;;;;;;;;;;;15.01;38.46;98932.28;4899989;29;19936;-70
2021/12/12 07:55:52;;;;;;;;;;;;;;;17.06;36.72;98940.28;4900291;29;19932;-71
2021/12/12 07:58:20;;;;;;;;;;;;;;;17.57;32.02;98939.09;4901430;29;19932;-71
2021/12/12 08:00:49;;;;;;;;;;;;;;;19.15;31.02;98950.56;4903310;29;19934;-71
2021/12/12 08:03:19;;;;;;;;;;;;;;;19.77;30.05;98955.19;4894425;29;20711;-71
2021/12/12 08:05:47;;;;;;;;;;;;;;;21.38;26.60;98961.19;4902862;29;19937;-70
2021/12/12 08:08:15;;;;;;;;;;;;;;;21.51;26.92;98962.00;4904966;29;19938;-71
2021/12/12 08:10:44;;;;;;;;;;;;;;;21.58;25.75;98973.16;4900553;29;19958;-71
2021/12/12 08:13:12;;;;;;;;;;;;;;;21.77;24.26;98970.50;4900838;29;19932;-70
2021/12/12 08:15:40;;;;;;;;;;;;;;;21.03;25.09;98979.31;4908389;29;19931;-70
2021/12/12 08:18:10;;;;;;;;;;;;;;;20.35;26.31;98970.31;4894478;29;19936;-70
2021/12/12 08:20:38;;;;;;;;;;;;;;;19.73;26.79;98963.81;4900730;29;20324;-70
2021/12/12 08:23:05;;;;;;;;;;;;;;;18.59;27.57;98969.59;4893850;29;19935;-70
2021/12/12 08:25:34;;;;;;;;;;;;;;;17.91;29.23;98974.91;4882034;29;19938;-71
2021/12/12 08:28:04;;;;;;;;;;;;;;;17.17;30.06;98976.84;4897459;29;20308;-71
2021/12/12 08:30:32;;;;;;;;;;;;;;;16.74;32.37;98979.47;4909347;29;19935;-71
2021/12/12 08:33:00;;;;;;;;;;;;;;;16.06;34.32;98984.22;4903270;29;19932;-71
2021/12/12 08:35:28;;;;;;;;;;;;;;;15.92;32.27;98975.88;4890962;29;19936;-71
2021/12/12 08:37:57;;;;;;;;;;;;;;;16.18;32.30;98989.34;4898386;29;19932;-71
2021/12/12 08:40:28;;;;;;;;;;;;;;;16.10;33.53;98982.16;4898839;29;19932;-70
2021/12/12 08:42:56;;;;;;;;;;;;;;;15.04;35.29;98993.41;4899469;29;19932;-70
2021/12/12 08:45:28;;;;;;;;;;;;;;;14.03;36.14;98990.56;4897763;29;19928;-70
2021/12/12 08:47:58;;;;;;;;;;;;;;;13.12;42.29;98988.50;4897812;29;19927;-69
2021/12/12 08:50:33;;;;;;;;;;;;;;;12.08;46.01;98990.47;4897990;29;20347;-69
2021/12/12 08:53:02;;;;;;;;;;;;;;;11.26;48.96;98993.78;4898802;29;20344;-69
2021/12/12 08:55:34;;;;;;;;;;;;;;;10.56;52.44;98992.59;4898687;29;19938;-70
2021/12/12 08:58:14;;;;;;;;;;;;;;;10.20;55.73;99001.72;4898906;29;19966;-70
2021/12/12 09:00:45;;;;;;;;;;;;;;;9.79;58.25;99000.69;4899253;29;20577;-69
2021/12/12 09:03:14;;;;;;;;;;;;;;;9.51;59.31;99002.25;4898512;29;19932;-69
2021/12/12 09:05:43;;;;;;;;;;;;;;;9.20;60.49;99003.28;4897767;29;19942;-69
2021/12/12 09:08:27;;;;;;;;;;;;;;;8.88;58.32;99007.47;4902145;29;19939;-69
2021/12/12 09:11:07;;;;;;;;;;;;;;;8.96;63.35;99014.81;4899725;29;20216;-69
2021/12/12 09:13:38;;;;;;;;;;;;;;;8.78;63.88;99010.88;4884060;29;19932;-69
2021/12/12 09:16:05;;;;;;;;;;;;;;;8.54;67.25;99020.34;4896626;29;19928;-69
2021/12/12 09:18:43;;;;;;;;;;;;;;;8.40;63.63;99025.63;4892528;29;19947;-70
2021/12/12 09:21:14;;;;;;;;;;;;;;;8.42;65.29;99028.84;4895199;29;20010;-70
2021/12/12 09:23:48;;;;;;;;;;;;;;;8.31;61.88;99033.41;4896096;29;19961;-71
2021/12/12 09:26:21;;;;;;;;;;;;;;;8.37;59.76;99027.16;4901169;29;20308;-70
2021/12/12 09:28:53;;;;;;;;;;;;;;;8.34;61.95;99027.88;4903267;29;19936;-71
2021/12/12 09:31:30;;;;;;;;;;;;;;;8.12;60.06;99027.78;4896496;29;20194;-72
2021/12/12 09:33:57;;;;;;;;;;;;;;;8.21;63.46;99028.38;4905172;29;19931;-71
2021/12/12 09:36:27;;;;;;;;;;;;;;;8.18;64.67;99031.88;4907638;29;19931;-71
2021/12/12 09:38:59;;;;;;;;;;;;;;;8.29;63.16;99027.41;4907266;29;19938;-71
2021/12/12 09:41:35;;;;;;;;;;;;;;;8.35;61.83;99031.50;4891525;29;19931;-71
2021/12/12 09:44:02;;;;;;;;;;;;;;;8.56;60.44;99038.31;4897992;29;19931;-71
2021/12/12 09:46:58;;;;;;;;;;;;;;;8.69;57.45;99038.16;4905118;29;19938;-71
2021/12/12 09:52:30;;;;;;;;;;;;;;;8.86;54.92;99043.28;4903841;29;19947;-71
2021/12/12 09:55:00;;;;;;;;;;;;;;;8.92;56.09;99042.66;4898100;29;21557;-71
2021/12/12 09:57:30;;;;;;;;;;;;;;;9.04;62.25;99025.75;4883599;29;19931;-72
2021/12/12 10:00:05;;;;;;;;;;;;;;;9.02;57.70;99036.44;4902904;29;19932;-72
2021/12/12 10:02:41;;;;;;;;;;;;;;;8.88;59.54;99040.94;4899139;29;19934;-71
2021/12/12 10:05:27;;;;;;;;;;;;;;;9.42;64.85;99041.56;4901239;29;20252;-71
2021/12/12 10:08:06;;;;;;;;;;;;;;;9.51;64.37;99030.16;4900735;29;19931;-70
2021/12/12 10:10:40;;;;;;;;;;;;;;;9.67;63.08;99023.25;4899333;29;19927;-72
2021/12/12 10:13:07;;;;;;;;;;;;;;;9.51;57.35;99033.75;4896193;29;19931;-71
2021/12/12 10:15:40;;;;;;;;;;;;;;;9.61;58.15;99033.13;4896257;29;20411;-71
2021/12/12 10:18:10;;;;;;;;;;;;;;;9.86;52.57;99027.94;4897961;29;19931;-71
2021/12/12 10:20:41;;;;;;;;;;;;;;;10.05;51.95;99029.84;4899231;29;20220;-70
2021/12/12 10:23:17;;;;;;;;;;;;;;;10.19;58.88;99032.84;4898725;29;19938;-71
2021/12/12 10:26:00;;;;;;;;;;;;;;;10.23;57.96;99036.50;4902226;29;19939;-71
2021/12/12 10:28:49;;;;;;;;;;;;;;;10.29;56.41;99030.22;4904463;29;19931;-71
2021/12/12 10:31:19;;;;;;;;;;;;;;;10.18;56.47;99034.03;4896109;29;19931;-71
2021/12/12 10:33:59;;;;;;;;;;;;;;;10.26;56.44;99036.56;4896955;29;20593;-71
2021/12/12 10:36:32;;;;;;;;;;;;;;;10.17;54.46;99043.59;4892335;29;19938;-71
2021/12/12 10:39:08;;;;;;;;;;;;;;;10.34;53.22;99041.03;4894428;29;19931;-71
2021/12/12 10:41:38;;;;;;;;;;;;;;;10.40;56.73;99041.53;4884721;29;19938;-71
2021/12/12 10:44:05;;;;;;;;;;;;;;;10.37;54.04;99042.28;4900650;29;19958;-71
2021/12/12 10:46:51;;;;;;;;;;;;;;;10.35;54.68;99048.25;4893097;29;19939;-70
2021/12/12 10:49:51;;;;;;;;;;;;;;;10.36;55.50;99044.28;4897120;29;19936;-71
2021/12/12 10:52:21;;;;;;;;;;;;;;;10.33;54.83;99047.84;4869073;29;19928;-71
2021/12/12 10:54:53;;;;;;;;;;;;;;;10.32;56.10;99046.22;4903887;29;19942;-71
2021/12/12 10:57:24;;;;;;;;;;;;;;;10.25;56.82;99048.91;4912425;29;19947;-70
2021/12/12 10:59:55;;;;;;;;;;;;;;;10.24;55.72;99046.50;4906169;29;19935;-70
2021/12/12 11:02:28;;;;;;;;;;;;;;;10.18;58.90;99042.41;4900856;29;19939;-70
2021/12/12 11:04:59;;;;;;;;;;;;;;;10.17;61.12;99040.81;4902590;29;19932;-70
2021/12/12 11:07:29;;;;;;;;;;;;;;;10.17;61.03;99040.81;4900858;29;19943;-71
2021/12/12 11:10:05;;;;;;;;;;;;;;;10.17;59.38;99035.22;4910934;29;19927;-71
2021/12/12 11:12:41;;;;;;;;;;;;;;;10.16;55.05;99036.41;4900821;29;19931;-71
2021/12/12 11:15:20;;;;;;;;;;;;;;;10.14;52.73;99038.78;4898672;29;19931;-71
2021/12/12 11:17:58;;;;;;;;;;;;;;;10.26;55.31;99038.53;4889995;29;19928;-70
2021/12/12 11:20:29;;;;;;;;;;;;;;;10.29;56.31;99046.19;4901064;29;19932;-70
2021/12/12 11:22:59;;;;;;;;;;;;;;;10.34;59.39;99040.25;4899266;29;20814;-71
2021/12/12 11:25:38;;;;;;;;;;;;;;;10.26;57.83;99042.16;4897873;29;20481;-71
2021/12/12 11:28:11;;;;;;;;;;;;;;;10.24;54.80;99043.72;4901239;29;20328;-71
2021/12/12 11:30:41;;;;;;;;;;;;;;;10.36;54.01;99038.69;4901230;29;19931;-72
2021/12/12 11:33:10;;;;;;;;;;;;;;;10.39;52.65;99035.13;4911917;29;19939;-70
2021/12/12 11:35:39;;;;;;;;;;;;;;;10.38;58.07;99029.91;4900475;29;19940;-71
2021/12/12 11:38:12;;;;;;;;;;;;;;;10.40;61.47;99027.56;4895814;29;19932;-70
2021/12/12 11:41:04;;;;;;;;;;;;;;;10.38;60.75;99019.56;4901531;29;19936;-70
2021/12/12 11:43:50;;;;;;;;;;;;;;;10.36;58.20;99021.13;4898823;29;19931;-70
2021/12/12 11:46:20;;;;;;;;;;;;;;;10.48;57.36;99020.88;4895052;29;20283;-70
2021/12/12 11:48:58;;;;;;;;;;;;;;;10.52;57.64;99021.72;4897046;29;19927;-70
2021/12/12 11:51:36;;;;;;;;;;;;;;;10.55;55.58;99016.19;4903478;29;19958;-70
2021/12/12 11:54:11;;;;;;;;;;;;;;;10.50;52.88;99021.28;4903697;29;19927;-70
2021/12/12 11:56:45;;;;;;;;;;;;;;;10.53;56.84;99026.94;4889239;29;19939;-70
2021/12/12 11:59:16;;;;;;;;;;;;;;;10.51;54.15;99022.91;4899217;29;19935;-70
2021/12/12 12:01:51;;;;;;;;;;;;;;;10.27;50.05;99026.97;4905391;29;19928;-70
2021/12/12 12:04:37;;;;;;;;;;;;;;;10.33;52.53;99030.25;4900594;29;19943;-70
2021/12/12 12:07:09;;;;;;;;;;;;;;;10.42;52.46;99026.00;4896985;29;20594;-70
2021/12/12 12:09:50;;;;;;;;;;;;;;;10.42;52.74;99020.41;4905455;29;19932;-68
2021/12/12 12:12:41;;;;;;;;;;;;;;;10.40;52.08;99024.75;4898335;29;19932;-70
2021/12/12 12:15:28;;;;;;;;;;;;;;;10.29;55.57;99026.63;4897426;29;19932;-72
2021/12/12 12:17:59;;;;;;;;;;;;;;;10.21;54.52;99022.09;4899012;29;20328;-72
2021/12/12 12:20:27;;;;;;;;;;;;;;;10.15;58.38;99018.81;4893240;29;20296;-72
2021/12/12 12:23:17;;;;;;;;;;;;;;;10.14;57.91;99014.44;4898847;29;19932;-70
2021/12/12 12:28:44;;;;;;;;;;;;;;;10.09;57.51;99019.50;4899410;29;19982;-71
2021/12/12 12:31:31;;;;;;;;;;;;;;;10.05;54.30;99015.84;4891172;29;19932;-71
2021/12/12 12:34:25;;;;;;;;;;;;;;;10.09;52.93;99022.28;4897938;29;19939;-71
2021/12/12 12:37:11;;;;;;;;;;;;;;;10.10;53.29;99029.50;4876820;29;19936;-72
2021/12/12 12:39:54;;;;;;;;;;;;;;;10.10;53.19;99021.13;4894809;29;19957;-71
2021/12/12 12:42:42;;;;;;;;;;;;;;;10.11;52.42;99022.72;4900311;29;19958;-71
2021/12/12 12:45:09;;;;;;;;;;;;;;;10.11;51.72;99028.31;4897564;29;19935;-72
2021/12/12 12:47:42;;;;;;;;;;;;;;;10.12;51.74;99021.56;4898546;29;19942;-72
2021/12/12 12:50:30;;;;;;;;;;;;;;;10.11;50.29;99014.34;4899151;29;19938;-71
2021/12/12 12:53:17;;;;;;;;;;;;;;;10.11;49.98;99011.53;4899156;29;19932;-71
2021/12/12 12:56:04;;;;;;;;;;;;;;;10.07;55.97;99007.91;4894856;29;19938;-72
2021/12/12 12:58:50;;;;;;;;;;;;;;;10.04;52.57;99000.25;4887682;29;19942;-71
2021/12/12 13:01:30;;;;;;;;;;;;;;;9.89;52.79;99008.44;4903684;29;19938;-71
2021/12/12 13:04:03;;;;;;;;;;;;;;;9.84;51.62;99005.97;4906577;29;20220;-71
2021/12/12 13:06:54;;;;;;;;;;;;;;;9.79;50.20;99006.28;4893642;29;19935;-72
2021/12/12 13:09:29;;;;;;;;;;;;;;;9.74;50.99;99008.59;4893088;29;19946;-71
2021/12/12 13:12:09;;;;;;;;;;;;;;;9.69;52.71;99000.53;4899390;29;19938;-71
2021/12/12 13:14:49;;;;;;;;;;;;;;;9.61;53.10;99005.19;4896611;29;19936;-71
2021/12/12 13:17:22;;;;;;;;;;;;;;;9.52;53.97;99004.66;4897643;29;19939;-71
2021/12/12 13:19:56;;;;;;;;;;;;;;;9.46;53.00;99000.56;4897511;29;19931;-72
2021/12/12 13:22:33;;;;;;;;;;;;;;;9.42;54.80;98998.88;4898110;29;19928;-71
2021/12/12 13:25:07;;;;;;;;;;;;;;;9.30;57.71;98999.06;4897702;29;19927;-71
2021/12/12 13:30:43;;;;;;;;;;;;;;;9.12;57.54;98993.19;4898611;29;19931;-71
2021/12/12 13:33:16;;;;;;;;;;;;;;;8.98;59.55;98984.56;4897578;29;19927;-71
2021/12/12 13:36:02;;;;;;;;;;;;;;;8.86;61.90;98993.09;4879163;29;19942;-71
2021/12/12 13:38:42;;;;;;;;;;;;;;;8.73;64.09;98989.66;4891186;29;19940;-72
2021/12/12 13:41:20;;;;;;;;;;;;;;;8.58;67.18;98991.38;4900204;29;20233;-71
2021/12/12 13:43:52;;;;;;;;;;;;;;;8.42;73.73;99004.59;4896962;29;19936;-71
2021/12/12 13:46:26;;;;;;;;;;;;;;;8.25;79.24;99004.97;4895209;29;19931;-71
2021/12/12 13:49:08;;;;;;;;;;;;;;;8.06;78.71;99002.19;4896414;29;20258;-71
2021/12/12 13:51:38;;;;;;;;;;;;;;;7.93;81.75;99001.50;4898907;29;19938;-71
2021/12/12 13:54:22;;;;;;;;;;;;;;;7.85;86.56;99004.47;4897753;29;19931;-71
2021/12/12 13:57:05;;;;;;;;;;;;;;;7.67;93.77;99001.28;4883961;29;19936;-71
2021/12/12 13:59:51;;;;;;;;;;;;;;;7.62;96.58;99004.34;4897406;29;19943;-71
2021/12/12 14:02:19;;;;;;;;;;;;;;;7.42;100.00;99008.22;4896925;29;19931;-71
2021/12/12 14:04:50;;;;;;;;;;;;;;;7.16;100.00;99013.53;4897812;29;20220;-71
2021/12/12 14:07:21;;;;;;;;;;;;;;;6.95;100.00;99008.19;4888920;29;20352;-71
2021/12/12 14:09:48;;;;;;;;;;;;;;;6.69;100.00;99018.19;4904222;29;19927;-71
2021/12/12 14:12:20;;;;;;;;;;;;;;;6.60;100.00;99013.59;4898961;29;20307;-71
2021/12/12 14:15:06;;;;;;;;;;;;;;;6.46;95.03;99031.81;4880733;29;19932;-71
2021/12/12 14:17:54;;;;;;;;;;;;;;;6.34;85.34;99024.34;4894420;29;19935;-72
2021/12/12 14:20:21;;;;;;;;;;;;;;;6.14;82.77;99019.78;4895008;29;20208;-74
2021/12/12 14:22:51;;;;;;;;;;;;;;;6.07;76.31;99024.31;4894082;29;19944;-71
2021/12/12 14:25:18;;;;;;;;;;;;;;;6.04;75.80;99020.25;4896300;29;19928;-72
2021/12/12 14:27:47;;;;;;;;;;;;;;;5.98;80.64;99024.44;4896086;29;19954;-71
2021/12/12 14:30:17;;;;;;;;;;;;;;;5.89;90.36;99019.00;4896417;29;19932;-70
2021/12/12 14:33:05;;;;;;;;;;;;;;;5.88;93.53;99020.19;4896678;29;19940;-70
2021/12/12 14:35:36;;;;;;;;;;;;;;;5.88;93.44;99020.19;4896673;29;20254;-73
2021/12/12 14:38:04;;;;;;;;;;;;;;;5.92;92.47;99028.59;4894035;29;19935;-72
2021/12/12 14:40:36;;;;;;;;;;;;;;;6.00;92.55;99024.09;4897047;29;19938;-72
2021/12/12 14:43:05;;;;;;;;;;;;;;;6.07;91.86;99024.31;4895500;29;19935;-71
2021/12/12 14:45:59;;;;;;;;;;;;;;;6.14;91.94;99025.31;4896411;29;19944;-71
2021/12/12 14:48:29;;;;;;;;;;;;;;;6.21;94.56;99033.09;4908907;29;19958;-70
2021/12/12 14:51:09;;;;;;;;;;;;;;;6.11;89.00;99041.91;4896860;29;20150;-71
2021/12/12 14:53:42;;;;;;;;;;;;;;;6.05;81.45;99040.50;4901286;29;19932;-70
2021/12/12 14:56:12;;;;;;;;;;;;;;;5.97;74.43;99037.50;4895194;29;19938;-70
2021/12/12 14:58:43;;;;;;;;;;;;;;;5.88;74.55;99033.25;4898353;29;19932;-70
2021/12/12 15:01:16;;;;;;;;;;;;;;;5.87;75.96;99039.94;4897776;29;20356;-71
2021/12/12 15:03:46;;;;;;;;;;;;;;;5.86;72.93;99041.13;4896526;29;19931;-71
2021/12/12 15:06:24;;;;;;;;;;;;;;;5.74;75.48;99036.38;4897613;29;19927;-71
2021/12/12 15:08:57;;;;;;;;;;;;;;;5.64;78.67;99031.28;4897159;29;19932;-71
2021/12/12 15:11:37;;;;;;;;;;;;;;;5.61;86.84;99028.38;4896791;29;19965;-70
2021/12/12 15:14:12;;;;;;;;;;;;;;;5.51;96.04;99015.78;4895087;29;20232;-70
2021/12/12 15:16:42;;;;;;;;;;;;;;;5.44;99.49;99025.84;4896024;29;19931;-71
2021/12/12 15:19:14;;;;;;;;;;;;;;;5.40;100.00;99027.72;4896392;29;20576;-70
2021/12/12 15:21:48;;;;;;;;;;;;;;;5.35;100.00;99025.16;4895774;29;19935;-71
2021/12/12 15:24:27;;;;;;;;;;;;;;;5.28;100.00;99031.28;4897133;29;19927;-71
2021/12/12 15:27:07;;;;;;;;;;;;;;;5.24;99.78;99031.16;4895227;29;19936;-71
2021/12/12 15:29:36;;;;;;;;;;;;;;;5.12;100.00;99030.31;4882470;29;19939;-71
2021/12/12 15:32:08;;;;;;;;;;;;;;;5.07;100.00;99045.22;4899416;29;19936;-71
2021/12/12 15:34:37;;;;;;;;;;;;;;;4.98;99.32;99043.69;4898965;29;19935;-71
2021/12/12 15:37:07;;;;;;;;;;;;;;;4.88;98.60;99038.59;4898496;29;19958;-71
2021/12/12 15:39:40;;;;;;;;;;;;;;;4.77;100.00;99046.50;4893735;29;19931;-70
2021/12/12 15:42:10;;;;;;;;;;;;;;;4.62;100.00;99031.34;4898344;29;19936;-70
2021/12/12 15:44:39;;;;;;;;;;;;;;;4.51;100.00;99040.44;4896671;29;19931;-71
2021/12/12 15:47:09;;;;;;;;;;;;;;;4.40;100.00;99048.34;4897625;29;19939;-71
2021/12/12 15:49:39;;;;;;;;;;;;;;;4.28;100.00;99053.81;4894901;29;19935;-70
2021/12/12 15:52:09;;;;;;;;;;;;;;;4.13;100.00;99050.88;4896268;29;19931;-70
2021/12/12 15:54:38;;;;;;;;;;;;;;;3.98;100.00;99053.09;4898859;29;19935;-73
2021/12/12 15:57:07;;;;;;;;;;;;;;;3.85;100.00;99053.31;4895774;29;19938;-78
2021/12/12 15:59:40;;;;;;;;;;;;;;;3.86;100.00;99052.19;4899089;29;19938;-71
2021/12/12 16:02:10;;;;;;;;;;;;;;;3.88;100.00;99050.72;4898910;29;19936;-71
2021/12/12 16:04:39;;;;;;;;;;;;;;;3.88;100.00;99050.72;4899666;29;19939;-71
2021/12/12 16:07:09;;;;;;;;;;;;;;;3.88;100.00;99053.47;4899874;29;20232;-71
2021/12/12 16:09:39;;;;;;;;;;;;;;;3.93;100.00;99055.22;4899181;29;19932;-72
2021/12/12 16:12:08;;;;;;;;;;;;;;;3.95;100.00;99062.06;4895157;29;19928;-72
2021/12/12 16:14:37;;;;;;;;;;;;;;;3.98;100.00;99068.88;4898050;29;20221;-72
2021/12/12 16:17:20;;;;;;;;;;;;;;;4.06;100.00;99067.19;4914483;29;19935;-72
2021/12/12 16:19:50;;;;;;;;;;;;;;;4.16;100.00;99066.81;4896104;29;20331;-71
2021/12/12 16:22:19;;;;;;;;;;;;;;;4.26;100.00;99056.13;4893735;29;20368;-72
2021/12/12 16:24:49;;;;;;;;;;;;;;;4.33;100.00;99066.63;4897241;29;19928;-71
2021/12/12 16:27:21;;;;;;;;;;;;;;;4.36;100.00;99061.25;4897366;29;19927;-71
2021/12/12 16:29:53;;;;;;;;;;;;;;;4.37;100.00;99062.88;4894449;29;20301;-72
2021/12/12 16:32:26;;;;;;;;;;;;;;;4.40;100.00;99067.72;4898687;29;19931;-71
2021/12/12 16:34:56;;;;;;;;;;;;;;;4.42;100.00;99070.16;4899375;29;19938;-71
2021/12/12 16:37:27;;;;;;;;;;;;;;;4.44;100.00;99073.41;4896952;29;19939;-71
2021/12/12 16:40:01;;;;;;;;;;;;;;;4.51;100.00;99068.13;4891677;29;19939;-71
2021/12/12 16:42:30;;;;;;;;;;;;;;;4.62;100.00;99066.56;4896561;29;19931;-71
2021/12/12 16:45:00;;;;;;;;;;;;;;;4.63;100.00;99062.63;4895698;29;19932;-71
2021/12/12 16:47:33;;;;;;;;;;;;;;;4.61;100.00;99064.94;4892325;29;19932;-71
2021/12/12 16:50:02;;;;;;;;;;;;;;;4.60;100.00;99055.81;4896469;29;19932;-71
2021/12/12 16:52:31;;;;;;;;;;;;;;;4.60;100.00;99055.81;4894423;29;19939;-71
2021/12/12 16:55:09;;;;;;;;;;;;;;;4.63;100.00;99054.31;4898629;29;19935;-71
2021/12/12 16:57:39;;;;;;;;;;;;;;;4.60;100.00;99053.03;4897694;29;19935;-71
2021/12/12 17:00:06;;;;;;;;;;;;;;;4.64;100.00;99059.53;4895946;29;19998;-71
2021/12/12 17:02:36;;;;;;;;;;;;;;;4.63;100.00;99057.91;4894792;29;20241;-71
2021/12/12 17:05:06;;;;;;;;;;;;;;;4.74;100.00;99061.06;4898009;29;19991;-71
2021/12/12 17:07:42;;;;;;;;;;;;;;;4.94;100.00;99053.88;4897613;29;19986;-71
2021/12/12 17:10:10;;;;;;;;;;;;;;;4.86;100.00;99058.34;4897956;29;19938;-71
2021/12/12 17:12:40;;;;;;;;;;;;;;;4.90;100.00;99058.44;4895226;29;20236;-70
2021/12/12 17:15:14;;;;;;;;;;;;;;;4.86;100.00;99061.13;4891848;29;19938;-70
2021/12/12 17:17:43;;;;;;;;;;;;;;;4.83;100.00;99049.88;4897569;29;20253;-71
2021/12/12 17:20:16;;;;;;;;;;;;;;;4.81;100.00;99058.56;4898544;29;19931;-71
2021/12/12 17:22:54;;;;;;;;;;;;;;;4.79;100.00;99058.09;4898814;29;19935;-70
2021/12/12 17:25:22;;;;;;;;;;;;;;;4.83;100.00;99059.03;4898468;29;19936;-70
2021/12/12 17:27:50;;;;;;;;;;;;;;;4.81;100.00;99052.19;4898416;29;19939;-70
2021/12/12 17:30:22;;;;;;;;;;;;;;;4.87;100.00;99050.81;4899839;29;20308;-70
2021/12/12 17:32:52;;;;;;;;;;;;;;;4.92;100.00;99039.50;4893692;29;19931;-73
2021/12/12 17:35:28;;;;;;;;;;;;;;;4.95;100.00;99049.91;4900211;29;19931;-73
2021/12/12 17:37:57;;;;;;;;;;;;;;;4.98;100.00;99049.25;4894355;29;19935;-74
2021/12/12 17:40:28;;;;;;;;;;;;;;;5.01;99.59;99054.09;4896433;29;20014;-73
2021/12/12 17:43:12;;;;;;;;;;;;;;;5.05;98.12;99060.56;4892063;29;19927;-73
2021/12/12 17:45:53;;;;;;;;;;;;;;;5.08;98.49;99054.34;4883491;29;19931;-73
2021/12/12 17:48:39;;;;;;;;;;;;;;;5.11;98.94;99067.53;4882825;29;19943;-74
2021/12/12 17:51:22;;;;;;;;;;;;;;;5.05;100.00;99064.16;4883700;29;19931;-74
2021/12/12 17:54:02;;;;;;;;;;;;;;;5.01;100.00;99076.28;4883814;29;20526;-73
2021/12/12 17:56:35;;;;;;;;;;;;;;;4.94;100.00;99076.81;4883696;29;19935;-73
2021/12/12 17:59:10;;;;;;;;;;;;;;;4.89;100.00;99074.25;4884812;29;19935;-74
2021/12/12 18:01:40;;;;;;;;;;;;;;;4.89;100.00;99074.25;4886249;29;19931;-74
2021/12/12 18:04:10;;;;;;;;;;;;;;;4.90;100.00;99075.91;4884882;29;20325;-73
2021/12/12 18:06:39;;;;;;;;;;;;;;;4.91;100.00;99082.25;4886106;29;20607;-72
2021/12/12 18:09:36;;;;;;;;;;;;;;;4.91;95.51;99071.97;4886165;29;19942;-73
2021/12/12 18:12:07;;;;;;;;;;;;;;;4.90;99.37;99072.31;4884933;29;19927;-74
2021/12/12 18:14:39;;;;;;;;;;;;;;;4.89;100.00;99079.03;4884424;29;19934;-74
2021/12/12 18:17:21;;;;;;;;;;;;;;;4.88;98.09;99092.06;4883879;29;19938;-73
2021/12/12 18:19:58;;;;;;;;;;;;;;;4.93;94.83;99097.38;4883405;29;19986;-72
2021/12/12 18:22:28;;;;;;;;;;;;;;;4.95;94.48;99097.84;4883736;29;20231;-70
2021/12/12 18:24:56;;;;;;;;;;;;;;;4.96;94.11;99109.75;4884334;29;19935;-70
2021/12/12 18:27:31;;;;;;;;;;;;;;;4.95;95.86;99108.13;4882266;29;20309;-70
2021/12/12 18:30:07;;;;;;;;;;;;;;;4.93;97.94;99110.44;4883054;29;19936;-70
2021/12/12 18:32:37;;;;;;;;;;;;;;;4.93;98.00;99111.25;4883555;29;19932;-70
2021/12/12 18:35:07;;;;;;;;;;;;;;;4.89;100.00;99106.72;4883054;29;19935;-71
2021/12/12 18:37:37;;;;;;;;;;;;;;;4.83;100.00;99124.69;4883137;29;19931;-70
2021/12/12 18:40:20;;;;;;;;;;;;;;;4.77;100.00;99124.09;4882590;29;19936;-70
2021/12/12 18:42:50;;;;;;;;;;;;;;;4.77;100.00;99126.88;4882082;29;20022;-70
2021/12/12 18:45:19;;;;;;;;;;;;;;;4.68;100.00;99128.09;4882826;29;20652;-70
2021/12/12 18:47:54;;;;;;;;;;;;;;;4.61;100.00;99123.91;4884702;29;19931;-70
2021/12/12 18:50:57;;;;;;;;;;;;;;;4.58;100.00;99126.53;4883350;29;19931;-71
2021/12/12 18:53:37;;;;;;;;;;;;;;;4.67;100.00;99123.72;4848246;29;19932;-71
2021/12/12 18:56:06;;;;;;;;;;;;;;;4.62;99.75;99133.03;4881745;29;19936;-70
2021/12/12 18:58:41;;;;;;;;;;;;;;;4.67;96.04;99132.03;4887441;29;20221;-71
2021/12/12 19:01:09;;;;;;;;;;;;;;;4.77;90.13;99128.84;4886031;29;19935;-71
2021/12/12 19:03:44;;;;;;;;;;;;;;;4.81;88.77;99133.38;4888640;29;20257;-70
2021/12/12 19:06:13;;;;;;;;;;;;;;;4.82;91.71;99134.97;4889777;29;19939;-71
2021/12/12 19:08:45;;;;;;;;;;;;;;;4.83;89.96;99142.16;4890956;29;19936;-72
2021/12/12 19:11:17;;;;;;;;;;;;;;;4.84;89.42;99138.19;4890117;29;19943;-71
2021/12/12 19:13:46;;;;;;;;;;;;;;;4.80;89.21;99133.69;4888149;29;19963;-71
2021/12/12 19:16:16;;;;;;;;;;;;;;;4.84;88.00;99146.50;4887028;29;19942;-71
2021/12/12 19:18:45;;;;;;;;;;;;;;;4.77;89.80;99143.47;4885830;29;20245;-74
2021/12/12 19:21:15;;;;;;;;;;;;;;;4.80;92.73;99142.00;4887198;29;19936;-73
2021/12/12 19:23:47;;;;;;;;;;;;;;;4.76;93.25;99141.88;4886633;29;19966;-74
2021/12/12 19:26:17;;;;;;;;;;;;;;;4.76;93.97;99139.13;4886770;29;19935;-74
2021/12/12 19:28:48;;;;;;;;;;;;;;;4.67;95.34;99132.03;4885794;29;20233;-76